Time;durP1;ratioP1;P1;durP2;ratioP2;P2;SDS_P1;SDS_P2;PMS_P1;PMS_P2;Temp;Humidity;BMP_temperature;BMP_pressure;BME280_temperature;BME280_humidity;BME280_pressure;Samples;Min_cycle;Max_cycle;Signal;HPM_P1;HPM_P2
2022/05/08 15:43:12;;;;;;;3.67;1.90;;;;;;;21.91;57.07;100507.00;4714126;27;10002083;-65
2022/05/08 15:45:37;;;;;;;4.78;1.60;;;;;;;21.65;57.89;100476.81;5064637;28;20037;-66
2022/05/08 15:48:03;;;;;;;8.75;1.80;;;;;;;21.54;59.08;100451.63;5064128;28;20102;-66
2022/05/08 15:50:29;;;;;;;5.72;2.10;;;;;;;21.58;60.36;100502.25;5064445;28;20530;-65
2022/05/08 15:52:54;;;;;;;6.30;2.25;;;;;;;21.31;61.94;100483.34;5062839;28;20029;-66
2022/05/08 15:55:24;;;;;;;4.53;1.88;;;;;;;21.38;63.51;100469.06;5064255;28;20052;-66
2022/05/08 15:57:53;;;;;;;5.95;2.03;;;;;;;21.34;64.77;100521.94;5064360;28;20542;-66
2022/05/08 16:00:20;;;;;;;6.93;2.30;;;;;;;21.25;65.98;100513.00;5063982;28;20132;-66
2022/05/08 16:02:45;;;;;;;5.40;2.25;;;;;;;20.96;66.85;100432.97;5063896;28;20042;-65
2022/05/08 16:05:12;;;;;;;4.72;2.13;;;;;;;21.28;66.62;100499.88;5064054;28;20107;-66
2022/05/08 16:07:38;;;;;;;5.05;1.63;;;;;;;20.71;68.86;100524.16;5063761;28;20090;-65
2022/05/08 16:10:05;;;;;;;5.95;2.08;;;;;;;19.98;70.04;100447.63;5063768;28;20039;-66
2022/05/08 16:23:27;;;;;;;4.55;2.10;;;;;;;19.79;75.45;100484.00;5055898;28;20118;-67
2022/05/08 16:25:53;;;;;;;7.90;1.90;;;;;;;19.54;78.21;100485.50;5061747;28;20072;-66
2022/05/08 16:28:18;;;;;;;7.50;2.00;;;;;;;19.80;78.74;100490.00;5063189;28;20114;-66
2022/05/08 16:30:44;;;;;;;5.22;2.20;;;;;;;19.93;79.67;100526.28;5063075;28;20132;-66
2022/05/08 16:33:10;;;;;;;5.05;2.22;;;;;;;19.80;80.58;100533.88;5063293;28;20041;-66
2022/05/08 16:35:35;;;;;;;4.30;1.85;;;;;;;19.66;81.42;100531.25;5061180;28;20041;-67
2022/05/08 16:38:01;;;;;;;3.95;1.48;;;;;;;19.14;85.39;100547.88;5060342;28;20495;-67
2022/05/08 16:40:27;;;;;;;5.10;1.80;;;;;;;19.04;83.40;100520.03;5043244;28;20423;-67
2022/05/08 16:42:56;;;;;;;3.75;1.60;;;;;;;19.27;82.66;100552.31;5053145;28;20052;-67
2022/05/08 16:45:27;;;;;;;5.05;1.98;;;;;;;18.96;84.08;100557.44;5051051;28;20034;-67
2022/05/08 16:47:54;;;;;;;5.30;1.70;;;;;;;18.77;83.45;100565.31;5063425;28;20047;-68
2022/05/08 16:50:21;;;;;;;3.67;1.83;;;;;;;18.42;83.77;100504.44;5064384;28;20064;-68
2022/05/08 16:52:47;;;;;;;7.35;2.33;;;;;;;18.69;82.35;100562.31;5062831;28;20040;-69
2022/05/08 16:55:13;;;;;;;6.97;2.83;;;;;;;18.67;83.05;100560.72;5053703;28;20033;-68
2022/05/08 16:57:38;;;;;;;4.78;2.28;;;;;;;18.43;83.83;100572.28;5053328;28;20025;-69
2022/05/08 17:00:05;;;;;;;8.32;2.40;;;;;;;18.28;81.54;100565.28;5053439;28;20060;-68
2022/05/08 17:02:31;;;;;;;6.40;2.20;;;;;;;17.98;79.49;100532.47;5052003;28;20087;-67
2022/05/08 17:04:58;;;;;;;3.40;1.77;;;;;;;18.27;78.92;100584.22;5052992;28;20483;-70
2022/05/08 17:07:25;;;;;;;6.43;1.65;;;;;;;17.86;78.31;100527.06;5047424;28;20488;-66
2022/05/08 17:09:51;;;;;;;4.22;1.75;;;;;;;17.59;79.66;100525.84;5074602;28;20036;-70
2022/05/08 17:12:18;;;;;;;4.18;1.60;;;;;;;17.51;80.96;100533.91;5049752;28;20044;-70
2022/05/08 17:14:43;;;;;;;5.70;1.80;;;;;;;17.52;85.74;100601.59;5051878;28;20421;-69
2022/05/08 17:17:09;;;;;;;5.07;1.92;;;;;;;17.29;87.96;100577.75;5053090;28;20029;-68
2022/05/08 17:19:35;;;;;;;5.78;1.60;;;;;;;17.20;89.58;100587.63;5051503;28;20099;-68
2022/05/08 17:22:02;;;;;;;4.13;1.45;;;;;;;16.59;87.75;100493.66;5051046;28;20246;-69
2022/05/08 17:24:27;;;;;;;4.63;1.80;;;;;;;17.00;89.96;100577.38;5052418;28;20024;-69
2022/05/08 17:29:37;;;;;;;5.00;1.40;;;;;;;16.85;90.27;100596.91;5050568;28;20176;-69
2022/05/08 17:32:04;;;;;;;4.82;1.25;;;;;;;16.53;90.99;100579.47;5052512;28;20111;-68
2022/05/08 17:34:30;;;;;;;3.10;1.30;;;;;;;16.73;91.87;100573.47;5049297;28;20036;-70
2022/05/08 17:36:56;;;;;;;4.78;2.00;;;;;;;16.59;90.63;100550.13;5049502;28;20037;-69
2022/05/08 17:39:21;;;;;;;5.72;2.17;;;;;;;16.35;94.27;100601.59;5049645;28;20037;-69
2022/05/08 17:41:47;;;;;;;3.10;1.70;;;;;;;16.07;96.96;100583.09;5040471;28;20495;-68
2022/05/08 17:44:12;;;;;;;3.45;1.85;;;;;;;15.64;100.00;100552.38;5042334;28;20083;-69
2022/05/08 17:46:37;;;;;;;2.72;1.48;;;;;;;15.49;100.00;100563.19;5052471;28;20099;-70
2022/05/08 17:49:03;;;;;;;6.30;1.90;;;;;;;15.63;100.00;100601.94;5052000;28;20044;-69
2022/05/08 17:51:28;;;;;;;4.57;1.83;;;;;;;15.49;100.00;100599.91;5052130;28;20107;-69
2022/05/08 17:53:54;;;;;;;6.40;2.00;;;;;;;15.61;100.00;100609.72;5051876;28;20188;-69
2022/05/08 17:56:19;;;;;;;3.95;2.03;;;;;;;15.17;100.00;100576.38;5052380;28;20033;-70
2022/05/08 17:58:45;;;;;;;5.43;1.70;;;;;;;14.66;100.00;100518.50;5050648;28;20040;-69
2022/05/08 18:01:10;;;;;;;5.53;2.00;;;;;;;15.09;100.00;100586.06;5052120;28;20540;-70
2022/05/08 18:06:19;;;;;;;5.53;2.42;;;;;;;15.08;100.00;100618.53;4697423;27;10000441;-69
2022/05/08 18:08:45;;;;;;;5.22;2.38;;;;;;;14.81;100.00;100576.00;5048861;28;20045;-70
2022/05/08 18:11:12;;;;;;;5.43;2.45;;;;;;;14.78;100.00;100632.41;5048170;28;20487;-70
2022/05/08 18:13:39;;;;;;;6.13;2.28;;;;;;;14.32;100.00;100581.94;5048447;28;20040;-70
2022/05/08 18:16:05;;;;;;;6.80;2.28;;;;;;;14.70;100.00;100635.22;5048309;28;20413;-67
2022/05/08 18:18:31;;;;;;;7.90;2.90;;;;;;;14.64;100.00;100634.59;5042191;28;20396;-70
2022/05/08 18:21:00;;;;;;;8.07;2.90;;;;;;;14.16;100.00;100585.06;5028570;28;20029;-69
2022/05/08 18:23:26;;;;;;;5.18;2.60;;;;;;;13.65;100.00;100529.59;5028304;28;20025;-68
2022/05/08 18:25:52;;;;;;;5.88;3.05;;;;;;;14.28;100.00;100638.41;5031174;28;20087;-66
2022/05/08 18:28:19;;;;;;;9.90;3.25;;;;;;;14.12;100.00;100594.56;5047817;28;20036;-70
2022/05/08 18:30:45;;;;;;;6.85;3.40;;;;;;;13.70;100.00;100586.53;5047807;28;20037;-69
2022/05/08 18:33:12;;;;;;;10.93;3.70;;;;;;;14.11;100.00;100644.00;5047545;28;20040;-68
2022/05/08 18:35:38;;;;;;;8.20;3.28;;;;;;;14.07;100.00;100656.94;5047547;28;20127;-67
2022/05/08 18:38:05;;;;;;;8.00;3.30;;;;;;;13.65;100.00;100601.13;5046346;28;20429;-67
2022/05/08 18:40:32;;;;;;;4.75;3.33;;;;;;;13.22;100.00;100554.78;5047350;28;20047;-68
2022/05/08 18:42:58;;;;;;;9.10;3.55;;;;;;;13.47;100.00;100613.66;5047775;28;20546;-67
2022/05/08 18:45:24;;;;;;;6.57;3.75;;;;;;;13.63;100.00;100661.69;5046273;28;20494;-68
2022/05/08 18:47:52;;;;;;;9.85;4.00;;;;;;;13.86;100.00;100681.44;5046180;28;20059;-67
2022/05/08 18:50:19;;;;;;;6.82;3.90;;;;;;;13.20;100.00;100604.22;5047193;28;20036;-68
2022/05/08 18:52:44;;;;;;;9.40;4.40;;;;;;;12.99;100.00;100619.22;5047361;28;20119;-69
2022/05/08 18:55:10;;;;;;;9.07;4.63;;;;;;;13.44;100.00;100678.44;5047727;28;20120;-69
2022/05/08 18:57:35;;;;;;;11.43;5.15;;;;;;;13.17;100.00;100623.03;5047340;28;20103;-68
2022/05/08 19:00:03;;;;;;;8.55;4.68;;;;;;;13.44;100.00;100678.44;5047019;28;20068;-69
2022/05/08 19:02:28;;;;;;;8.02;3.90;;;;;;;13.56;100.00;100695.97;5045882;28;20147;-69
2022/05/08 19:04:53;;;;;;;7.68;3.80;;;;;;;13.28;100.00;100650.78;5045797;28;20540;-68
2022/05/08 19:07:21;;;;;;;6.82;3.75;;;;;;;13.38;100.00;100688.81;5067193;28;20020;-67
2022/05/08 19:09:47;;;;;;;8.07;3.80;;;;;;;13.03;100.00;100631.03;5067136;28;20037;-67
2022/05/08 19:12:13;;;;;;;6.70;3.78;;;;;;;12.70;100.00;100591.09;5067207;28;20138;-66
2022/05/08 19:14:39;;;;;;;7.93;4.05;;;;;;;13.26;100.00;100668.72;5066864;28;20187;-67
2022/05/08 19:17:04;;;;;;;7.70;3.60;;;;;;;13.31;100.00;100626.00;5066021;28;20101;-67
2022/05/08 19:19:30;;;;;;;9.02;4.03;;;;;;;13.59;100.00;100702.69;5067063;28;20036;-68
2022/05/08 19:21:56;;;;;;;4.35;3.05;;;;;;;13.65;100.00;100700.78;5066679;28;20040;-68
2022/05/08 19:24:21;;;;;;;5.05;3.05;;;;;;;13.51;100.00;100643.34;5067261;28;20036;-68
2022/05/08 19:26:47;;;;;;;9.18;3.35;;;;;;;13.51;100.00;100659.47;5054868;28;20067;-68
2022/05/08 19:29:13;;;;;;;7.22;3.55;;;;;;;13.14;100.00;100696.28;5046766;28;20029;-68
2022/05/08 19:39:53;;;;;;;8.73;4.22;;;;;;;12.83;100.00;100665.63;5047008;28;20483;-68
2022/05/08 19:42:19;;;;;;;8.15;4.00;;;;;;;13.26;100.00;100717.25;5046237;28;20061;-69
2022/05/08 19:44:45;;;;;;;6.20;3.80;;;;;;;12.34;100.00;100604.00;5045519;28;20109;-69
2022/05/08 19:47:15;;;;;;;6.43;3.83;;;;;;;13.00;100.00;100645.59;5046661;28;20116;-68
2022/05/08 19:49:41;;;;;;;7.50;3.90;;;;;;;12.55;100.00;100673.16;5046970;28;20029;-67
2022/05/08 19:52:07;;;;;;;11.27;4.03;;;;;;;11.99;100.00;100643.91;5046479;28;20078;-67
2022/05/08 19:54:34;;;;;;;6.63;3.65;;;;;;;12.51;100.00;100686.84;5046068;28;20029;-67
2022/05/08 19:56:59;;;;;;;6.97;3.80;;;;;;;12.65;100.00;100719.66;5046501;28;20513;-68
2022/05/08 19:59:26;;;;;;;9.30;4.28;;;;;;;12.69;100.00;100705.97;5046793;28;20037;-68
2022/05/08 20:01:51;;;;;;;7.15;4.03;;;;;;;12.87;100.00;100720.81;5045440;28;20033;-68
2022/05/08 20:04:20;;;;;;;9.52;4.75;;;;;;;12.64;100.00;100718.81;5050265;28;20469;-69
2022/05/08 20:06:45;;;;;;;8.85;4.43;;;;;;;12.61;100.00;100726.56;5050315;28;20021;-69
2022/05/08 20:09:11;;;;;;;9.10;4.18;;;;;;;11.67;100.00;100633.59;5050005;28;20033;-69
2022/05/08 20:11:37;;;;;;;7.15;4.05;;;;;;;12.31;100.00;100668.63;5050223;28;20123;-69
2022/05/08 20:14:03;;;;;;;7.93;4.20;;;;;;;12.08;100.00;100674.25;5050209;28;20033;-68
2022/05/08 20:16:28;;;;;;;8.02;4.00;;;;;;;12.29;100.00;100674.63;5050166;28;20027;-69
2022/05/08 20:18:54;;;;;;;10.55;4.18;;;;;;;12.38;100.00;100697.38;5050227;28;20467;-68
2022/05/08 20:24:03;;;;;;;10.55;4.30;;;;;;;12.39;100.00;100665.91;5049771;28;20087;-67
2022/05/08 20:26:29;;;;;;;7.97;3.88;;;;;;;11.99;100.00;100728.00;5048889;28;20421;-67
2022/05/08 20:28:56;;;;;;;7.30;4.28;;;;;;;12.05;100.00;100732.97;5050890;28;20024;-69
2022/05/08 20:31:22;;;;;;;6.38;3.90;;;;;;;12.34;100.00;100739.13;5052421;28;20083;-69
2022/05/08 20:33:47;;;;;;;7.53;4.00;;;;;;;12.37;100.00;100759.44;5053812;28;20029;-69
2022/05/08 20:36:13;;;;;;;5.70;3.88;;;;;;;12.31;100.00;100744.28;5053486;28;20021;-70
2022/05/08 20:38:38;;;;;;;7.68;4.00;;;;;;;11.99;100.00;100659.19;5053656;28;20038;-70
2022/05/08 20:41:03;;;;;;;10.52;4.30;;;;;;;11.86;100.00;100684.97;5052302;28;20664;-69
2022/05/08 20:43:29;;;;;;;7.75;4.13;;;;;;;12.19;100.00;100741.16;5053749;28;20033;-70
2022/05/08 20:45:55;;;;;;;9.40;4.03;;;;;;;11.80;100.00;100696.16;5052361;28;20448;-70
2022/05/08 20:48:21;;;;;;;8.70;4.25;;;;;;;12.08;100.00;100742.25;5053442;28;20021;-69
2022/05/08 20:50:46;;;;;;;9.75;4.38;;;;;;;12.00;100.00;100733.94;5053222;28;20471;-70
2022/05/08 20:53:12;;;;;;;7.55;4.20;;;;;;;11.40;100.00;100689.31;5053052;28;20158;-69
2022/05/08 20:55:37;;;;;;;7.90;4.10;;;;;;;11.47;100.00;100681.50;5053314;28;20029;-69
2022/05/08 20:58:03;;;;;;;5.97;3.95;;;;;;;12.00;100.00;100757.69;5053200;28;20050;-69
2022/05/08 21:00:28;;;;;;;6.88;3.97;;;;;;;11.69;100.00;100690.44;5053396;28;20025;-69
2022/05/08 21:02:53;;;;;;;7.90;4.03;;;;;;;11.72;100.00;100760.84;5051766;28;20541;-70
2022/05/08 21:08:03;;;;;;;7.50;3.92;;;;;;;11.87;100.00;100733.34;5053098;28;20040;-70
2022/05/08 21:10:29;;;;;;;8.70;4.38;;;;;;;11.09;100.00;100656.00;5053016;28;20436;-69
2022/05/08 21:12:54;;;;;;;10.38;4.43;;;;;;;11.48;100.00;100743.47;5052973;28;20021;-69
2022/05/08 21:15:20;;;;;;;6.93;3.38;;;;;;;11.93;100.00;100751.06;5053057;28;20052;-69
2022/05/08 21:17:47;;;;;;;9.85;4.18;;;;;;;11.34;100.00;100705.56;5052837;28;20079;-69
2022/05/08 21:20:13;;;;;;;8.30;3.67;;;;;;;11.59;100.00;100736.47;5052763;28;20033;-70
2022/05/08 21:22:39;;;;;;;6.60;3.75;;;;;;;11.51;100.00;100675.50;5052083;28;20494;-69
2022/05/08 21:25:05;;;;;;;6.40;3.78;;;;;;;11.42;100.00;100736.78;5052767;28;20037;-70
2022/05/08 21:27:30;;;;;;;6.78;4.13;;;;;;;11.58;100.00;100671.13;5052941;28;20562;-70
2022/05/08 21:29:56;;;;;;;6.80;3.22;;;;;;;11.57;100.00;100712.75;5051387;28;20024;-70
2022/05/08 21:32:21;;;;;;;8.60;3.90;;;;;;;11.37;100.00;100736.03;5052939;28;20040;-70
2022/05/08 21:34:47;;;;;;;6.60;3.83;;;;;;;11.28;100.00;100683.59;5052264;28;20037;-70
2022/05/08 21:37:12;;;;;;;9.38;3.75;;;;;;;11.29;100.00;100682.72;5051354;28;20037;-70
2022/05/08 21:39:38;;;;;;;7.88;3.78;;;;;;;11.17;100.00;100694.88;5052511;28;20085;-70
2022/05/08 21:42:04;;;;;;;8.52;3.90;;;;;;;11.12;100.00;100729.72;5052241;28;20053;-70
2022/05/08 21:44:29;;;;;;;8.07;3.83;;;;;;;11.01;100.00;100711.28;5052490;28;20032;-69
2022/05/08 21:46:55;;;;;;;8.98;4.07;;;;;;;11.20;100.00;100741.44;5052433;28;20352;-70
2022/05/08 21:49:20;;;;;;;6.93;3.80;;;;;;;11.37;100.00;100768.31;5051880;28;20120;-70
2022/05/08 21:51:46;;;;;;;6.28;3.63;;;;;;;11.19;100.00;100704.13;5052157;28;20411;-70
2022/05/08 21:54:11;;;;;;;8.43;4.00;;;;;;;11.26;100.00;100750.66;5052135;28;20025;-70
2022/05/08 21:56:37;;;;;;;5.80;3.75;;;;;;;11.32;100.00;100733.59;5052075;28;20102;-69
2022/05/08 21:59:02;;;;;;;11.13;3.75;;;;;;;11.14;100.00;100656.72;5052286;28;20051;-69
2022/05/08 22:01:29;;;;;;;6.55;3.55;;;;;;;11.77;100.00;100764.97;5052038;28;20112;-69
2022/05/08 22:03:57;;;;;;;5.72;3.35;;;;;;;11.44;100.00;100708.75;5051658;28;20087;-70
2022/05/08 22:06:23;;;;;;;6.25;3.58;;;;;;;11.46;100.00;100722.28;5052129;28;20039;-70
2022/05/08 22:08:48;;;;;;;6.78;3.47;;;;;;;11.58;100.00;100757.69;5052097;28;20036;-69
2022/05/08 22:11:14;;;;;;;8.02;3.83;;;;;;;11.88;100.00;100772.41;5051734;28;20035;-67
2022/05/08 22:13:40;;;;;;;5.60;3.33;;;;;;;11.68;100.00;100762.63;5050610;28;20037;-68
2022/05/08 22:16:06;;;;;;;7.22;4.05;;;;;;;11.80;100.00;100781.91;5051849;28;20025;-69
2022/05/08 22:21:15;;;;;;;7.65;3.72;;;;;;;11.49;100.00;100732.44;5051946;28;20053;-67
2022/05/08 22:23:41;;;;;;;8.48;4.30;;;;;;;11.68;100.00;100785.56;5051680;28;20088;-68
2022/05/08 22:26:09;;;;;;;8.88;5.20;;;;;;;10.79;100.00;100689.63;5051768;28;20040;-70
2022/05/08 22:28:34;;;;;;;10.48;6.25;;;;;;;11.25;100.00;100738.84;5051787;28;20036;-70
2022/05/08 22:31:00;;;;;;;10.85;7.43;;;;;;;10.94;100.00;100773.28;5051167;28;20075;-69
2022/05/08 22:33:25;;;;;;;13.82;6.72;;;;;;;10.91;100.00;100732.66;5050385;28;20025;-69
2022/05/08 22:35:51;;;;;;;11.77;6.10;;;;;;;11.67;100.00;100781.31;5051615;28;20036;-69
2022/05/08 22:38:16;;;;;;;9.98;6.53;;;;;;;11.53;100.00;100767.97;5051355;28;20174;-67
2022/05/08 22:40:42;;;;;;;11.85;6.10;;;;;;;10.90;100.00;100775.06;5051411;28;20040;-67
2022/05/08 22:43:08;;;;;;;10.75;5.80;;;;;;;10.98;100.00;100768.13;5051213;28;20442;-67
2022/05/08 22:45:35;;;;;;;9.25;5.80;;;;;;;10.35;100.00;100738.63;5049635;28;20040;-68
2022/05/08 22:48:01;;;;;;;9.25;5.63;;;;;;;10.57;100.00;100764.56;5050083;28;20471;-68
2022/05/08 22:50:26;;;;;;;11.25;5.50;;;;;;;10.68;100.00;100772.88;5049749;28;20025;-67
2022/05/08 22:52:53;;;;;;;11.73;5.25;;;;;;;10.44;100.00;100720.69;5050769;28;20029;-68
2022/05/08 22:55:19;;;;;;;10.68;5.63;;;;;;;10.77;100.00;100767.66;5049363;28;20029;-68
2022/05/08 22:57:45;;;;;;;10.35;5.22;;;;;;;10.99;100.00;100769.78;5051035;28;20503;-68
2022/05/08 23:00:11;;;;;;;6.90;5.35;;;;;;;10.33;100.00;100690.38;5050653;28;20068;-67
2022/05/08 23:02:36;;;;;;;8.43;5.13;;;;;;;10.83;100.00;100773.47;5049766;28;20060;-68
2022/05/08 23:05:02;;;;;;;8.85;4.90;;;;;;;10.95;100.00;100768.16;5050721;28;20124;-68
2022/05/08 23:07:28;;;;;;;8.80;5.13;;;;;;;10.48;100.00;100702.00;5050878;28;20549;-68
2022/05/08 23:09:53;;;;;;;7.85;4.72;;;;;;;10.78;100.00;100698.94;5050984;28;20040;-68
2022/05/08 23:12:18;;;;;;;8.15;4.63;;;;;;;11.06;100.00;100771.38;5050723;28;20044;-67
2022/05/08 23:17:32;;;;;;;8.70;5.53;;;;;;;11.12;100.00;100760.25;5050969;28;20053;-68
2022/05/08 23:19:58;;;;;;;8.32;5.68;;;;;;;10.94;100.00;100752.94;5050684;28;20028;-68
2022/05/08 23:22:24;;;;;;;10.02;5.63;;;;;;;10.45;100.00;100695.28;5049296;28;20086;-68
2022/05/08 23:24:50;;;;;;;8.13;5.28;;;;;;;11.24;100.00;100737.13;5050545;28;20024;-68
2022/05/08 23:27:15;;;;;;;8.98;5.50;;;;;;;10.82;100.00;100756.53;5050283;28;20032;-68
2022/05/08 23:29:41;;;;;;;12.07;5.47;;;;;;;10.89;100.00;100744.56;5050576;28;20395;-68
2022/05/08 23:32:07;;;;;;;10.18;5.72;;;;;;;11.23;100.00;100741.38;5049371;28;20029;-68
2022/05/08 23:34:32;;;;;;;12.50;5.80;;;;;;;10.42;100.00;100674.13;5050439;28;20068;-68
2022/05/08 23:37:02;;;;;;;8.30;5.63;;;;;;;10.56;100.00;100689.19;5050609;28;20078;-68
2022/05/08 23:39:32;;;;;;;7.45;5.43;;;;;;;10.57;100.00;100739.16;5050389;28;20504;-68
2022/05/08 23:41:57;;;;;;;7.75;4.85;;;;;;;10.22;100.00;100641.41;5050066;28;20118;-69
2022/05/08 23:44:23;;;;;;;7.88;4.70;;;;;;;10.17;100.00;100683.00;5050624;28;20503;-68
2022/05/08 23:46:48;;;;;;;8.93;4.55;;;;;;;10.41;100.00;100690.25;5050556;28;20500;-69
2022/05/08 23:49:14;;;;;;;14.35;4.43;;;;;;;10.04;100.00;100679.75;5049064;28;20040;-69
2022/05/08 23:51:39;;;;;;;6.47;3.88;;;;;;;9.84;100.00;100669.06;5050581;28;20506;-68
2022/05/08 23:54:04;;;;;;;7.15;4.00;;;;;;;10.37;100.00;100752.16;5049064;28;20116;-68
2022/05/08 23:56:30;;;;;;;6.32;3.92;;;;;;;10.26;100.00;100677.81;5049919;28;20467;-68
2022/05/08 23:58:55;;;;;;;7.13;3.63;;;;;;;10.49;100.00;100726.56;5048850;28;20048;-70
